createdAt,value
2023-06-19T00:00:27.741Z,14.89
2023-06-19T00:03:30.859Z,14.93
2023-06-19T00:06:34.212Z,14.90
2023-06-19T00:09:37.194Z,14.87
2023-06-19T00:12:40.871Z,14.73
2023-06-19T00:15:44.273Z,14.55
2023-06-19T00:18:47.945Z,14.48
2023-06-19T00:21:50.926Z,14.45
2023-06-19T00:24:54.020Z,14.46
2023-06-19T00:27:57.076Z,14.41
2023-06-19T00:31:00.045Z,14.44
2023-06-19T00:34:03.007Z,14.37
2023-06-19T00:37:06.085Z,14.30
2023-06-19T00:40:13.635Z,14.53
2023-06-19T00:43:16.398Z,14.46
2023-06-19T00:46:19.556Z,14.43
2023-06-19T00:49:22.786Z,14.32
2023-06-19T00:52:25.766Z,14.29
2023-06-19T00:55:33.302Z,14.15
2023-06-19T00:58:36.630Z,14.14
2023-06-19T01:01:39.755Z,14.03
2023-06-19T01:04:43.019Z,14.06
2023-06-19T01:08:16.246Z,13.98
2023-06-19T01:11:26.681Z,13.89
2023-06-19T01:14:39.634Z,13.96
2023-06-19T01:17:43.575Z,13.94
2023-06-19T01:20:46.760Z,13.90
2023-06-19T01:23:49.627Z,13.89
2023-06-19T01:26:53.320Z,13.86
2023-06-19T01:29:59.054Z,13.93
2023-06-19T01:33:10.089Z,13.83
2023-06-19T01:36:13.871Z,13.81
2023-06-19T01:39:19.604Z,13.66
2023-06-19T01:42:22.381Z,13.66
2023-06-19T01:45:25.627Z,13.64
2023-06-19T01:48:28.762Z,13.64
2023-06-19T01:51:31.560Z,13.68
2023-06-19T01:54:34.410Z,13.63
2023-06-19T01:57:37.674Z,13.61
2023-06-19T02:00:40.584Z,13.60
2023-06-19T02:03:43.524Z,13.64
2023-06-19T02:06:46.833Z,13.67
2023-06-19T02:09:49.757Z,13.69
2023-06-19T02:12:52.641Z,13.75
2023-06-19T02:15:55.644Z,13.73
2023-06-19T02:19:01.673Z,13.69
2023-06-19T02:22:04.843Z,13.65
2023-06-19T02:25:08.264Z,13.72
2023-06-19T02:28:12.533Z,13.73
2023-06-19T02:31:15.632Z,13.70
2023-06-19T02:34:19.002Z,13.66
2023-06-19T02:37:24.139Z,13.63
2023-06-19T02:40:27.598Z,13.64
2023-06-19T02:43:31.301Z,13.66
2023-06-19T02:46:34.786Z,13.61
2023-06-19T02:49:38.476Z,13.58
2023-06-19T02:52:41.757Z,13.47
2023-06-19T02:55:44.961Z,13.32
2023-06-19T02:58:47.904Z,13.30
2023-06-19T03:01:50.877Z,13.28
2023-06-19T03:04:53.853Z,13.29
2023-06-19T03:07:57.229Z,13.42
2023-06-19T03:11:00.922Z,13.37
2023-06-19T03:14:08.531Z,13.53
2023-06-19T03:17:13.952Z,13.54
2023-06-19T03:20:17.308Z,13.57
2023-06-19T03:23:29.083Z,13.52
2023-06-19T03:26:33.894Z,13.54
2023-06-19T03:29:39.225Z,13.59
2023-06-19T03:32:44.571Z,13.75
2023-06-19T03:35:56.851Z,13.86
2023-06-19T03:39:18.637Z,13.93
2023-06-19T03:42:23.285Z,14.04
2023-06-19T03:45:26.529Z,14.09
2023-06-19T03:48:29.603Z,14.26
2023-06-19T03:51:32.780Z,14.31
2023-06-19T03:54:36.073Z,14.40
2023-06-19T03:57:39.344Z,14.48
2023-06-19T04:00:42.744Z,14.61
2023-06-19T04:03:45.867Z,14.69
2023-06-19T04:06:49.086Z,14.79
2023-06-19T04:09:52.289Z,14.88
2023-06-19T04:12:56.973Z,14.96
2023-06-19T04:16:00.235Z,15.03
2023-06-19T04:19:04.576Z,15.06
2023-06-19T04:22:09.705Z,15.20
2023-06-19T04:25:14.526Z,15.13
2023-06-19T04:28:18.109Z,15.34
2023-06-19T04:31:21.288Z,15.34
2023-06-19T04:34:24.562Z,15.59
2023-06-19T04:37:27.939Z,15.55
2023-06-19T04:40:31.231Z,15.75
2023-06-19T04:43:35.421Z,15.84
2023-06-19T04:46:39.220Z,16.00
2023-06-19T04:49:42.266Z,16.06
2023-06-19T04:52:45.233Z,16.19
2023-06-19T04:55:48.744Z,16.38
2023-06-19T04:58:54.866Z,16.53
2023-06-19T05:01:59.122Z,16.71
2023-06-19T05:05:04.817Z,16.88
2023-06-19T05:08:07.679Z,17.06
2023-06-19T05:11:10.438Z,17.39
2023-06-19T05:14:15.517Z,17.64
2023-06-19T05:17:18.756Z,17.76
2023-06-19T05:20:21.745Z,17.85
2023-06-19T05:23:24.613Z,17.82
2023-06-19T05:26:27.855Z,17.71
2023-06-19T05:29:32.203Z,17.53
2023-06-19T05:32:35.410Z,17.58
2023-06-19T05:35:39.565Z,17.67
2023-06-19T05:38:43.543Z,17.57
2023-06-19T05:41:49.412Z,17.54
2023-06-19T05:44:53.473Z,17.84
2023-06-19T05:47:57.345Z,18.05
2023-06-19T05:51:00.976Z,18.12
2023-06-19T05:54:05.587Z,18.48
2023-06-19T05:57:08.981Z,19.07
2023-06-19T06:00:15.433Z,19.13
2023-06-19T06:03:18.820Z,19.37
2023-06-19T06:06:22.205Z,19.51
2023-06-19T06:09:25.645Z,19.43
2023-06-19T06:12:30.700Z,19.70
2023-06-19T06:15:33.779Z,19.90
2023-06-19T06:18:36.542Z,20.27
2023-06-19T06:21:39.442Z,20.63
2023-06-19T06:24:44.963Z,20.82
2023-06-19T06:27:50.745Z,21.04
2023-06-19T06:30:54.224Z,21.32
2023-06-19T06:33:58.875Z,21.17
2023-06-19T06:37:06.609Z,21.60
2023-06-19T06:40:11.055Z,21.09
2023-06-19T06:43:13.995Z,21.16
2023-06-19T06:46:17.048Z,21.06
2023-06-19T06:49:20.333Z,21.31
2023-06-19T06:52:23.741Z,21.54
2023-06-19T06:55:26.825Z,21.56
2023-06-19T06:58:30.123Z,21.51
2023-06-19T07:01:33.314Z,21.84
2023-06-19T07:04:36.274Z,22.02
2023-06-19T07:07:39.150Z,22.02
2023-06-19T07:10:42.083Z,22.10
2023-06-19T07:13:45.601Z,22.37
2023-06-19T07:16:48.689Z,22.66
2023-06-19T07:19:51.450Z,22.69
2023-06-19T07:22:55.035Z,22.88
2023-06-19T07:25:57.964Z,22.83
2023-06-19T07:29:00.997Z,23.02
2023-06-19T07:32:05.880Z,22.80
2023-06-19T07:35:09.584Z,22.89
2023-06-19T07:38:12.466Z,23.04
2023-06-19T07:41:15.587Z,23.28
2023-06-19T07:44:19.942Z,22.99
2023-06-19T07:47:23.343Z,23.38
2023-06-19T07:50:27.918Z,23.31
2023-06-19T07:53:32.089Z,23.35
2023-06-19T07:56:34.957Z,23.56
2023-06-19T07:59:38.050Z,23.84
2023-06-19T08:02:42.200Z,24.03
2023-06-19T08:05:45.258Z,23.88
2023-06-19T08:08:48.239Z,23.55
2023-06-19T08:11:51.204Z,23.82
2023-06-19T08:14:53.814Z,23.74
2023-06-19T08:17:56.493Z,23.99
2023-06-19T08:21:00.218Z,24.05
2023-06-19T08:24:03.931Z,24.00
2023-06-19T08:27:07.194Z,23.81
2023-06-19T08:30:13.036Z,24.11
2023-06-19T08:33:16.128Z,24.14
2023-06-19T08:36:18.833Z,24.50
2023-06-19T08:39:23.545Z,24.76
2023-06-19T08:42:26.703Z,24.58
2023-06-19T08:45:29.821Z,24.17
2023-06-19T08:48:35.696Z,24.40
2023-06-19T08:51:39.105Z,24.34
2023-06-19T08:54:46.683Z,24.49
2023-06-19T08:57:51.803Z,24.66
2023-06-19T09:00:54.846Z,24.80
2023-06-19T09:03:58.556Z,25.13
2023-06-19T09:07:04.434Z,25.18
2023-06-19T09:10:20.237Z,25.21
2023-06-19T09:13:24.372Z,25.54
2023-06-19T09:16:38.462Z,25.59
2023-06-19T09:19:52.487Z,25.83
2023-06-19T09:22:59.893Z,26.18
2023-06-19T09:26:02.837Z,26.24
2023-06-19T09:29:20.266Z,25.94
2023-06-19T09:33:18.379Z,26.61
2023-06-19T09:36:05.463Z,26.42
2023-06-19T09:39:09.408Z,26.59
2023-06-19T09:42:17.644Z,26.68
2023-06-19T09:45:23.744Z,26.90
2023-06-19T09:48:31.829Z,27.11
2023-06-19T09:51:39.218Z,26.77
2023-06-19T09:54:45.106Z,26.59
2023-06-19T09:57:49.879Z,26.82
2023-06-19T10:00:55.996Z,27.37
2023-06-19T10:04:07.859Z,27.69
2023-06-19T10:07:18.211Z,27.97
2023-06-19T10:10:27.790Z,28.40
2023-06-19T10:13:37.725Z,28.15
2023-06-19T10:16:43.420Z,27.62
2023-06-19T10:19:54.327Z,27.30
2023-06-19T10:23:09.366Z,27.86
2023-06-19T10:26:17.202Z,28.06
2023-06-19T10:29:20.364Z,28.73
2023-06-19T10:32:23.723Z,28.49
2023-06-19T10:35:26.636Z,29.41
2023-06-19T10:38:30.848Z,29.42
2023-06-19T10:41:34.358Z,29.66
2023-06-19T10:44:43.395Z,29.40
2023-06-19T10:47:46.342Z,30.63
2023-06-19T10:50:50.137Z,31.35
2023-06-19T10:53:55.201Z,32.64
2023-06-19T10:56:58.992Z,33.50
2023-06-19T11:00:02.074Z,34.04
2023-06-19T11:03:05.356Z,32.06
2023-06-19T11:06:08.400Z,33.54
2023-06-19T11:09:12.833Z,33.00
2023-06-19T11:12:24.729Z,31.95
2023-06-19T11:15:32.444Z,32.92
2023-06-19T11:18:35.777Z,32.71
2023-06-19T11:21:41.915Z,30.67
2023-06-19T11:24:53.640Z,31.28
2023-06-19T11:27:59.724Z,30.51
2023-06-19T11:31:05.620Z,28.98
2023-06-19T11:34:08.801Z,28.33
2023-06-19T11:37:19.403Z,28.44
2023-06-19T11:40:24.972Z,27.75
2023-06-19T11:43:32.133Z,28.00
2023-06-19T11:46:35.695Z,27.97
2023-06-19T11:49:39.593Z,28.40
2023-06-19T11:52:47.686Z,27.88
2023-06-19T11:55:51.936Z,28.39
2023-06-19T11:58:54.935Z,28.12
2023-06-19T12:01:59.959Z,28.40
2023-06-19T12:05:02.874Z,28.46
2023-06-19T12:08:07.881Z,29.08
2023-06-19T12:11:14.919Z,29.13
2023-06-19T12:14:20.663Z,30.94
2023-06-19T12:17:23.506Z,32.32
2023-06-19T12:20:46.685Z,34.42
2023-06-19T12:23:49.678Z,33.79
2023-06-19T12:26:52.461Z,33.52
2023-06-19T12:29:57.320Z,31.95
2023-06-19T12:33:00.203Z,33.86
2023-06-19T12:36:03.328Z,34.29
2023-06-19T12:39:14.563Z,34.15
2023-06-19T12:42:17.917Z,34.24
2023-06-19T12:45:20.746Z,35.04
2023-06-19T12:48:23.833Z,33.94
2023-06-19T12:51:26.662Z,32.85
2023-06-19T12:54:29.895Z,33.59
2023-06-19T12:57:32.716Z,33.07
2023-06-19T13:00:35.682Z,32.58
2023-06-19T13:03:38.752Z,30.88
2023-06-19T13:06:41.856Z,30.09
2023-06-19T13:09:44.656Z,29.85
2023-06-19T13:12:47.379Z,29.70
2023-06-19T13:15:50.270Z,29.80
2023-06-19T13:18:53.625Z,29.36
2023-06-19T13:21:56.697Z,30.52
2023-06-19T13:24:59.528Z,32.82
2023-06-19T13:28:02.243Z,32.74
2023-06-19T13:31:05.307Z,32.93
2023-06-19T13:34:08.456Z,32.31
2023-06-19T13:37:11.325Z,33.81
2023-06-19T13:40:14.441Z,32.59
2023-06-19T13:43:17.804Z,31.11
2023-06-19T13:46:23.221Z,31.35
2023-06-19T13:49:26.014Z,30.50
2023-06-19T13:52:32.124Z,31.02
2023-06-19T13:55:34.951Z,31.61
2023-06-19T13:58:38.004Z,32.22
2023-06-19T14:01:44.451Z,32.38
2023-06-19T14:04:47.446Z,30.85
2023-06-19T14:07:51.012Z,30.74
2023-06-19T14:10:54.600Z,31.82
2023-06-19T14:13:58.096Z,31.40
2023-06-19T14:17:01.524Z,31.59
2023-06-19T14:20:06.869Z,31.43
2023-06-19T14:23:09.931Z,31.02
2023-06-19T14:26:13.110Z,31.05
2023-06-19T14:29:17.120Z,31.63
2023-06-19T14:32:20.185Z,31.87
2023-06-19T14:35:23.263Z,31.67
2023-06-19T14:38:29.023Z,30.09
2023-06-19T14:41:31.919Z,29.77
2023-06-19T14:44:34.659Z,28.95
2023-06-19T14:47:37.787Z,29.48
2023-06-19T14:50:40.682Z,29.59
2023-06-19T14:53:43.777Z,29.49
2023-06-19T14:56:49.428Z,29.28
2023-06-19T14:59:52.384Z,29.20
2023-06-19T15:02:55.447Z,29.67
2023-06-19T15:05:58.756Z,29.83
2023-06-19T15:09:03.196Z,28.84
2023-06-19T15:12:08.370Z,27.95
2023-06-19T15:15:11.658Z,28.00
2023-06-19T15:18:14.646Z,28.25
2023-06-19T15:21:17.712Z,27.91
2023-06-19T15:24:20.715Z,28.11
2023-06-19T15:27:23.513Z,28.51
2023-06-19T15:30:26.605Z,28.58
2023-06-19T15:33:30.405Z,28.59
2023-06-19T15:36:33.351Z,28.87
2023-06-19T15:39:36.218Z,28.87
2023-06-19T15:42:39.125Z,28.16
2023-06-19T15:45:42.437Z,28.11
2023-06-19T15:48:45.351Z,28.06
2023-06-19T15:51:48.469Z,28.34
2023-06-19T15:54:51.220Z,28.37
2023-06-19T15:57:54.193Z,27.91
2023-06-19T16:00:57.569Z,27.60
2023-06-19T16:04:01.952Z,27.08
2023-06-19T16:07:05.136Z,27.12
2023-06-19T16:10:08.812Z,27.17
2023-06-19T16:13:12.091Z,27.20
2023-06-19T16:16:14.900Z,27.19
2023-06-19T16:19:19.868Z,26.98
2023-06-19T16:22:24.215Z,26.84
2023-06-19T16:25:27.155Z,26.66
2023-06-19T16:28:30.785Z,26.58
2023-06-19T16:31:33.721Z,26.60
2023-06-19T16:34:36.528Z,26.73
2023-06-19T16:37:39.798Z,26.73
2023-06-19T16:40:42.741Z,26.61
2023-06-19T16:43:45.543Z,26.58
2023-06-19T16:46:49.806Z,26.56
2023-06-19T16:49:52.915Z,26.41
2023-06-19T16:52:56.306Z,26.46
2023-06-19T16:55:59.446Z,26.64
2023-06-19T16:59:03.144Z,26.80
2023-06-19T17:02:06.397Z,26.90
2023-06-19T17:05:09.929Z,26.61
2023-06-19T17:08:13.315Z,26.62
2023-06-19T17:11:20.956Z,26.55
2023-06-19T17:14:24.480Z,26.60
2023-06-19T17:17:28.755Z,26.45
2023-06-19T17:20:31.961Z,26.16
2023-06-19T17:23:37.493Z,26.07
2023-06-19T17:26:40.871Z,25.92
2023-06-19T17:29:44.262Z,25.89
2023-06-19T17:32:47.704Z,25.75
2023-06-19T17:35:50.572Z,25.62
2023-06-19T17:38:53.598Z,25.51
2023-06-19T17:41:56.673Z,25.38
2023-06-19T17:45:00.874Z,25.11
2023-06-19T17:48:03.922Z,25.01
2023-06-19T17:51:07.016Z,24.82
2023-06-19T17:54:09.967Z,24.61
2023-06-19T17:57:12.860Z,24.48
2023-06-19T18:00:16.174Z,24.27
2023-06-19T18:03:19.208Z,24.12
2023-06-19T18:06:24.169Z,24.14
2023-06-19T18:09:27.373Z,24.06
2023-06-19T18:12:30.142Z,23.97
2023-06-19T18:15:33.563Z,23.87
2023-06-19T18:18:36.747Z,23.81
2023-06-19T18:21:40.027Z,23.58
2023-06-19T18:24:43.466Z,23.51
2023-06-19T18:27:47.270Z,23.49
2023-06-19T18:30:53.557Z,23.29
2023-06-19T18:33:57.503Z,23.37
2023-06-19T18:37:00.682Z,23.16
2023-06-19T18:40:04.427Z,23.09
2023-06-19T18:43:07.561Z,23.19
2023-06-19T18:46:10.727Z,22.97
2023-06-19T18:49:13.966Z,23.06
2023-06-19T18:52:17.790Z,22.92
2023-06-19T18:55:20.863Z,22.87
2023-06-19T18:58:24.035Z,22.79
2023-06-19T19:01:27.229Z,22.74
2023-06-19T19:04:30.321Z,22.71
2023-06-19T19:07:33.114Z,22.67
2023-06-19T19:10:35.865Z,22.68
2023-06-19T19:13:38.544Z,22.72
2023-06-19T19:16:41.526Z,22.76
2023-06-19T19:19:44.538Z,22.80
2023-06-19T19:22:47.591Z,22.88
2023-06-19T19:25:50.566Z,22.75
2023-06-19T19:28:53.621Z,22.80
2023-06-19T19:31:56.470Z,22.90
2023-06-19T19:34:59.921Z,22.87
2023-06-19T19:38:03.675Z,22.70
2023-06-19T19:41:06.688Z,22.69
2023-06-19T19:44:09.617Z,22.65
2023-06-19T19:47:12.508Z,22.64
2023-06-19T19:50:15.979Z,22.59
2023-06-19T19:53:18.947Z,22.61
2023-06-19T19:56:22.296Z,22.52
2023-06-19T19:59:25.224Z,22.45
2023-06-19T20:02:28.299Z,22.36
2023-06-19T20:05:31.195Z,22.27
2023-06-19T20:08:33.981Z,22.18
2023-06-19T20:11:36.880Z,21.91
2023-06-19T20:14:40.513Z,21.68
2023-06-19T20:17:43.621Z,21.71
2023-06-19T20:20:46.521Z,21.76
2023-06-19T20:23:49.252Z,21.73
2023-06-19T20:26:51.985Z,21.66
2023-06-19T20:29:55.144Z,21.52
2023-06-19T20:32:58.045Z,21.44
2023-06-19T20:36:03.433Z,21.45
2023-06-19T20:39:08.957Z,21.41
2023-06-19T20:42:11.806Z,21.31
2023-06-19T20:45:15.415Z,21.21
2023-06-19T20:48:18.265Z,21.09
2023-06-19T20:51:22.107Z,21.00
2023-06-19T20:54:24.822Z,20.91
2023-06-19T20:57:27.442Z,20.97
2023-06-19T21:00:30.253Z,20.92
2023-06-19T21:03:32.962Z,20.94
2023-06-19T21:06:35.814Z,20.93
2023-06-19T21:09:38.654Z,20.81
2023-06-19T21:12:41.725Z,20.71
2023-06-19T21:15:44.563Z,20.70
2023-06-19T21:18:47.537Z,20.48
2023-06-19T21:21:50.305Z,20.45
2023-06-19T21:24:53.180Z,20.38
2023-06-19T21:27:56.156Z,20.31
2023-06-19T21:30:59.123Z,20.29
2023-06-19T21:34:02.096Z,20.31
2023-06-19T21:37:05.381Z,20.23
2023-06-19T21:40:08.666Z,20.24
2023-06-19T21:43:11.634Z,20.10
2023-06-19T21:46:14.966Z,20.06
2023-06-19T21:49:18.080Z,19.95
2023-06-19T21:52:21.784Z,19.83
2023-06-19T21:55:25.057Z,19.69
2023-06-19T21:58:29.158Z,19.62
2023-06-19T22:01:32.129Z,19.51
2023-06-19T22:04:35.101Z,19.40
2023-06-19T22:07:38.285Z,19.35
2023-06-19T22:10:41.884Z,19.29
2023-06-19T22:13:45.339Z,19.15
2023-06-19T22:16:48.690Z,19.04
2023-06-19T22:19:51.607Z,18.96
2023-06-19T22:22:54.717Z,18.87
2023-06-19T22:25:57.786Z,18.74
2023-06-19T22:29:00.958Z,18.58
2023-06-19T22:32:04.249Z,18.51
2023-06-19T22:35:08.626Z,18.38
2023-06-19T22:38:12.291Z,18.32
2023-06-19T22:41:17.850Z,18.34
2023-06-19T22:44:21.020Z,18.35
2023-06-19T22:47:24.114Z,18.50
2023-06-19T22:50:27.252Z,18.40
2023-06-19T22:53:30.227Z,18.19
2023-06-19T22:56:34.238Z,18.09
2023-06-19T22:59:37.338Z,18.07
2023-06-19T23:02:44.879Z,18.04
2023-06-19T23:05:48.508Z,18.09
2023-06-19T23:08:51.663Z,18.11
2023-06-19T23:11:55.974Z,18.24
2023-06-19T23:14:59.230Z,18.36
2023-06-19T23:18:02.720Z,18.54
2023-06-19T23:21:06.514Z,18.55
2023-06-19T23:24:11.932Z,18.61
2023-06-19T23:27:17.275Z,18.64
2023-06-19T23:30:20.484Z,18.56
2023-06-19T23:33:27.021Z,18.39
2023-06-19T23:36:30.510Z,18.41
2023-06-19T23:39:33.896Z,18.27
2023-06-19T23:42:37.483Z,18.13
2023-06-19T23:45:40.853Z,17.99
2023-06-19T23:48:44.026Z,17.74
2023-06-19T23:51:47.626Z,17.76
2023-06-19T23:54:50.798Z,17.73
2023-06-19T23:57:55.602Z,17.75
